Time,TemperatureF,DewpointF,PressureIn,WindDirection,WindDirectionDegrees,WindSpeedMPH,WindSpeedGustMPH,Humidity,HourlyPrecipIn,Conditions,Clouds,dailyrainin,SolarRadiationWatts/m^2,SoftwareType,DateUTC
2013-09-07 00:01:00,49.8,48.4,30.15,North,-999,0.0,0.0,95,0.00,,,-99.99,0,WeatherLink 6.0.3,2013-09-07 04:01:00,
2013-09-07 00:02:00,49.8,48.4,30.15,NNE,31,0.0,0.0,95,0.00,,,0.00,0,Wunderground v.1.15,2013-09-07 04:02:00,
2013-09-07 00:06:00,49.7,48.3,30.15,NNE,31,0.0,0.0,95,0.00,,,0.00,0,Wunderground v.1.15,2013-09-07 04:06:00,
2013-09-07 00:08:00,49.7,48.3,30.15,NNE,31,0.0,0.0,95,0.00,,,0.00,0,Wunderground v.1.15,2013-09-07 04:08:00,
2013-09-07 00:13:00,49.6,48.2,30.15,NNE,31,0.0,0.0,95,0.00,,,0.00,0,Wunderground v.1.15,2013-09-07 04:13:00,
2013-09-07 00:18:00,49.5,48.1,30.15,NNE,31,0.0,0.0,95,0.00,,,0.00,0,Wunderground v.1.15,2013-09-07 04:18:00,
2013-09-07 00:20:00,49.4,48.0,30.15,NNE,31,0.0,0.0,95,0.00,,,0.00,0,Wunderground v.1.15,2013-09-07 04:20:00,
2013-09-07 00:25:00,49.3,47.9,30.14,NNE,31,0.0,0.0,95,0.00,,,0.00,0,Wunderground v.1.15,2013-09-07 04:25:00,
2013-09-07 00:30:00,49.2,47.8,30.14,NNE,31,0.0,0.0,95,0.00,,,0.00,0,Wunderground v.1.15,2013-09-07 04:30:00,
2013-09-07 00:35:00,49.1,47.7,30.14,NNE,31,0.0,0.0,95,0.00,,,0.00,0,Wunderground v.1.15,2013-09-07 04:35:00,
2013-09-07 00:40:00,49.0,47.6,30.14,NNE,31,0.0,0.0,95,0.00,,,0.00,0,Wunderground v.1.15,2013-09-07 04:40:00,
2013-09-07 00:45:00,49.0,47.6,30.14,NNE,31,0.0,0.0,95,0.00,,,0.00,0,Wunderground v.1.15,2013-09-07 04:45:00,
2013-09-07 00:51:00,48.9,47.5,30.14,NNE,31,0.0,0.0,95,0.00,,,0.00,0,Wunderground v.1.15,2013-09-07 04:51:00,
2013-09-07 00:56:00,48.9,47.5,30.14,NNE,31,0.0,0.0,95,0.00,,,0.00,0,Wunderground v.1.15,2013-09-07 04:56:00,
2013-09-07 01:01:00,48.8,47.4,30.14,NNE,31,0.0,0.0,95,0.00,,,0.00,0,Wunderground v.1.15,2013-09-07 05:01:00,
2013-09-07 01:06:00,48.7,47.3,30.14,NNE,31,0.0,0.0,95,0.00,,,0.00,0,Wunderground v.1.15,2013-09-07 05:06:00,
2013-09-07 01:12:00,48.6,47.2,30.14,NNE,31,0.0,0.0,95,0.00,,,0.00,0,Wunderground v.1.15,2013-09-07 05:12:00,
2013-09-07 01:17:00,48.5,47.1,30.14,NNE,31,0.0,0.0,95,0.00,,,0.00,0,Wunderground v.1.15,2013-09-07 05:17:00,
2013-09-07 01:22:00,48.5,47.4,30.14,NNE,31,0.0,0.0,96,0.00,,,0.00,0,Wunderground v.1.15,2013-09-07 05:22:00,
2013-09-07 01:28:00,48.5,47.4,30.14,NNE,31,0.0,0.0,96,0.00,,,0.00,0,Wunderground v.1.15,2013-09-07 05:28:00,
2013-09-07 01:33:00,48.6,47.5,30.14,NNE,31,0.0,0.0,96,0.00,,,0.00,0,Wunderground v.1.15,2013-09-07 05:33:00,
2013-09-07 01:38:00,48.6,47.5,30.14,NNE,31,0.0,0.0,96,0.00,,,0.00,0,Wunderground v.1.15,2013-09-07 05:38:00,
2013-09-07 01:43:00,48.5,47.4,30.14,NNE,31,0.0,0.0,96,0.00,,,0.00,0,Wunderground v.1.15,2013-09-07 05:43:00,
2013-09-07 01:48:00,48.5,47.4,30.14,NNE,31,0.0,0.0,96,0.00,,,0.00,0,Wunderground v.1.15,2013-09-07 05:48:00,
2013-09-07 01:53:00,48.5,47.4,30.14,NNE,31,0.0,0.0,96,0.00,,,0.00,0,Wunderground v.1.15,2013-09-07 05:53:00,
2013-09-07 01:58:00,48.5,47.4,30.13,NNE,31,0.0,0.0,96,0.00,,,0.00,0,Wunderground v.1.15,2013-09-07 05:58:00,
2013-09-07 02:03:00,48.4,47.3,30.13,NNE,31,0.0,0.0,96,0.00,,,0.00,0,Wunderground v.1.15,2013-09-07 06:03:00,
2013-09-07 02:09:00,48.2,47.1,30.13,NNE,31,0.0,0.0,96,0.00,,,0.00,0,Wunderground v.1.15,2013-09-07 06:09:00,
2013-09-07 02:15:00,48.2,47.1,30.13,NNE,31,0.0,0.0,96,0.00,,,0.00,0,Wunderground v.1.15,2013-09-07 06:15:00,
2013-09-07 02:20:00,48.1,47.0,30.13,NNE,31,0.0,0.0,96,0.00,,,0.00,0,Wunderground v.1.15,2013-09-07 06:20:00,
2013-09-07 02:25:00,48.1,47.0,30.13,NNE,31,0.0,0.0,96,0.00,,,0.00,0,Wunderground v.1.15,2013-09-07 06:25:00,
2013-09-07 02:31:00,48.0,46.9,30.13,North,-999,0.0,0.0,96,0.00,,,-99.99,0,WeatherLink 6.0.3,2013-09-07 06:31:00,
2013-09-07 02:36:00,47.9,46.8,30.13,NNE,31,0.0,0.0,96,0.00,,,0.00,0,Wunderground v.1.15,2013-09-07 06:36:00,
2013-09-07 02:41:00,47.7,46.6,30.12,NNE,31,0.0,0.0,96,0.00,,,0.00,0,Wunderground v.1.15,2013-09-07 06:41:00,
2013-09-07 02:46:00,47.7,46.6,30.13,NNE,31,0.0,0.0,96,0.00,,,0.00,0,Wunderground v.1.15,2013-09-07 06:46:00,
2013-09-07 02:51:00,47.7,46.6,30.13,NNE,31,0.0,0.0,96,0.00,,,0.00,0,Wunderground v.1.15,2013-09-07 06:51:00,
2013-09-07 02:56:00,47.6,46.5,30.13,NNE,31,0.0,0.0,96,0.00,,,0.00,0,Wunderground v.1.15,2013-09-07 06:56:00,
2013-09-07 03:02:00,47.4,46.3,30.12,NNE,31,0.0,0.0,96,0.00,,,0.00,0,Wunderground v.1.15,2013-09-07 07:02:00,
2013-09-07 03:07:00,47.3,46.2,30.12,NNE,31,0.0,0.0,96,0.00,,,0.00,0,Wunderground v.1.15,2013-09-07 07:07:00,
2013-09-07 03:13:00,47.2,46.1,30.13,NNE,31,0.0,0.0,96,0.00,,,0.00,0,Wunderground v.1.15,2013-09-07 07:13:00,
2013-09-07 03:18:00,47.1,46.0,30.12,NNE,31,0.0,0.0,96,0.00,,,0.00,0,Wunderground v.1.15,2013-09-07 07:18:00,
2013-09-07 03:23:00,46.9,45.8,30.12,NNE,31,0.0,0.0,96,0.00,,,0.00,0,Wunderground v.1.15,2013-09-07 07:23:00,
2013-09-07 03:28:00,46.8,45.7,30.12,NNE,31,0.0,0.0,96,0.00,,,0.00,0,Wunderground v.1.15,2013-09-07 07:28:00,
2013-09-07 03:33:00,46.6,45.5,30.12,NNE,31,0.0,0.0,96,0.00,,,0.00,0,Wunderground v.1.15,2013-09-07 07:33:00,
2013-09-07 03:38:00,46.5,45.4,30.12,NNE,31,0.0,0.0,96,0.00,,,0.00,0,Wunderground v.1.15,2013-09-07 07:38:00,
2013-09-07 03:44:00,46.5,45.4,30.12,NNE,31,0.0,0.0,96,0.00,,,0.00,0,Wunderground v.1.15,2013-09-07 07:44:00,
2013-09-07 03:49:00,46.3,45.2,30.11,NNE,31,0.0,0.0,96,0.00,,,0.00,0,Wunderground v.1.15,2013-09-07 07:49:00,
2013-09-07 03:54:00,46.3,45.2,30.11,NNE,31,0.0,0.0,96,0.00,,,0.00,0,Wunderground v.1.15,2013-09-07 07:54:00,
2013-09-07 03:59:00,46.3,45.2,30.12,NNE,31,0.0,0.0,96,0.00,,,0.00,0,Wunderground v.1.15,2013-09-07 07:59:00,
2013-09-07 04:04:00,46.2,45.1,30.11,NNE,31,0.0,0.0,96,0.00,,,0.00,0,Wunderground v.1.15,2013-09-07 08:04:00,
2013-09-07 04:09:00,46.0,44.9,30.11,NNE,31,0.0,0.0,96,0.00,,,0.00,0,Wunderground v.1.15,2013-09-07 08:09:00,
2013-09-07 04:15:00,45.9,44.8,30.11,NNE,31,0.0,0.0,96,0.00,,,0.00,0,Wunderground v.1.15,2013-09-07 08:15:00,
2013-09-07 04:20:00,45.9,44.8,30.12,NNE,31,0.0,0.0,96,0.00,,,0.00,0,Wunderground v.1.15,2013-09-07 08:20:00,
2013-09-07 04:25:00,45.9,44.8,30.12,NNE,31,0.0,0.0,96,0.00,,,0.00,0,Wunderground v.1.15,2013-09-07 08:25:00,
2013-09-07 04:30:00,45.8,44.7,30.12,NNE,31,0.0,0.0,96,0.00,,,0.00,0,Wunderground v.1.15,2013-09-07 08:30:00,
2013-09-07 04:36:00,45.6,44.5,30.11,NNE,31,0.0,0.0,96,0.00,,,0.00,0,Wunderground v.1.15,2013-09-07 08:36:00,
2013-09-07 04:42:00,45.6,44.5,30.11,NNE,31,0.0,0.0,96,0.00,,,0.00,0,Wunderground v.1.15,2013-09-07 08:42:00,
2013-09-07 04:48:00,45.4,44.3,30.11,NNE,31,0.0,0.0,96,0.00,,,0.00,0,Wunderground v.1.15,2013-09-07 08:48:00,
2013-09-07 04:54:00,45.2,44.1,30.11,NNE,31,0.0,0.0,96,0.00,,,0.00,0,Wunderground v.1.15,2013-09-07 08:54:00,
2013-09-07 04:59:00,45.1,44.0,30.11,NNE,31,0.0,0.0,96,0.00,,,0.00,0,Wunderground v.1.15,2013-09-07 08:59:00,
2013-09-07 05:05:00,45.0,43.9,30.12,NNE,31,0.0,0.0,96,0.00,,,0.00,0,Wunderground v.1.15,2013-09-07 09:05:00,
2013-09-07 05:10:00,44.9,43.8,30.12,NNE,31,0.0,0.0,96,0.00,,,0.00,0,Wunderground v.1.15,2013-09-07 09:10:00,
2013-09-07 05:16:00,44.7,43.6,30.11,NNE,31,0.0,0.0,96,0.00,,,0.00,0,Wunderground v.1.15,2013-09-07 09:16:00,
2013-09-07 05:21:00,44.7,43.6,30.12,NNE,31,0.0,0.0,96,0.00,,,0.00,0,Wunderground v.1.15,2013-09-07 09:21:00,
2013-09-07 05:26:00,44.7,43.6,30.12,NNE,31,0.0,0.0,96,0.00,,,0.00,0,Wunderground v.1.15,2013-09-07 09:26:00,
2013-09-07 05:31:00,44.7,43.6,30.12,NNE,31,0.0,0.0,96,0.00,,,0.00,0,Wunderground v.1.15,2013-09-07 09:31:00,
2013-09-07 05:37:00,44.6,43.5,30.12,NNE,31,0.0,0.0,96,0.00,,,0.00,0,Wunderground v.1.15,2013-09-07 09:37:00,
2013-09-07 05:42:00,44.5,43.4,30.12,NNE,31,0.0,0.0,96,0.00,,,0.00,0,Wunderground v.1.15,2013-09-07 09:42:00,
2013-09-07 05:47:00,44.5,43.4,30.12,NNE,31,0.0,0.0,96,0.00,,,0.00,0,Wunderground v.1.15,2013-09-07 09:47:00,
2013-09-07 05:53:00,44.3,43.2,30.12,NNE,31,0.0,0.0,96,0.00,,,0.00,0,Wunderground v.1.15,2013-09-07 09:53:00,
2013-09-07 05:59:00,44.2,43.1,30.12,NNE,31,0.0,0.0,96,0.00,,,0.00,0,Wunderground v.1.15,2013-09-07 09:59:00,
2013-09-07 06:05:00,44.1,43.0,30.11,NNE,31,0.0,0.0,96,0.00,,,0.00,0,Wunderground v.1.15,2013-09-07 10:05:00,
2013-09-07 06:11:00,44.0,42.9,30.11,NNE,31,0.0,0.0,96,0.00,,,0.00,0,Wunderground v.1.15,2013-09-07 10:11:00,
2013-09-07 06:16:00,43.9,42.8,30.11,NNE,31,0.0,0.0,96,0.00,,,0.00,0,Wunderground v.1.15,2013-09-07 10:16:00,
2013-09-07 06:21:00,44.0,42.9,30.12,NNE,31,0.0,0.0,96,0.00,,,0.00,0,Wunderground v.1.15,2013-09-07 10:21:00,
2013-09-07 06:27:00,44.1,43.3,30.12,NNE,31,0.0,0.0,97,0.00,,,0.00,0,Wunderground v.1.15,2013-09-07 10:27:00,
2013-09-07 06:32:00,44.2,43.4,30.12,NNE,31,0.0,0.0,97,0.00,,,0.00,0,Wunderground v.1.15,2013-09-07 10:32:00,
2013-09-07 06:37:00,44.0,43.2,30.12,NNE,31,0.0,0.0,97,0.00,,,0.00,0,Wunderground v.1.15,2013-09-07 10:37:00,
2013-09-07 06:43:00,43.9,42.8,30.13,NNE,31,0.0,0.0,96,0.00,,,0.00,0,Wunderground v.1.15,2013-09-07 10:43:00,
2013-09-07 06:48:00,43.8,42.7,30.13,NNE,31,0.0,0.0,96,0.00,,,0.00,0,Wunderground v.1.15,2013-09-07 10:48:00,
2013-09-07 06:54:00,43.8,42.7,30.13,NNE,31,0.0,0.0,96,0.00,,,0.00,0,Wunderground v.1.15,2013-09-07 10:54:00,
2013-09-07 06:59:00,43.8,42.7,30.13,NNE,31,0.0,0.0,96,0.00,,,0.00,5,Wunderground v.1.15,2013-09-07 10:59:00,
2013-09-07 07:05:00,43.8,42.7,30.13,NNE,31,0.0,0.0,96,0.00,,,0.00,7,Wunderground v.1.15,2013-09-07 11:05:00,
2013-09-07 07:10:00,43.7,42.6,30.13,NNE,31,0.0,0.0,96,0.00,,,0.00,9,Wunderground v.1.15,2013-09-07 11:10:00,
2013-09-07 07:16:00,43.7,42.9,30.13,NNE,31,0.0,0.0,97,0.00,,,0.00,12,Wunderground v.1.15,2013-09-07 11:16:00,
2013-09-07 07:22:00,43.7,42.9,30.13,NNE,31,0.0,0.0,97,0.00,,,0.00,16,Wunderground v.1.15,2013-09-07 11:22:00,
2013-09-07 07:28:00,43.8,43.0,30.13,NNE,31,0.0,0.0,97,0.00,,,0.00,23,Wunderground v.1.15,2013-09-07 11:28:00,
2013-09-07 07:34:00,43.9,43.1,30.13,NNE,31,0.0,0.0,97,0.00,,,0.01,28,Wunderground v.1.15,2013-09-07 11:34:00,
2013-09-07 07:39:00,44.0,43.2,30.13,NNE,31,0.0,0.0,97,0.00,,,0.01,32,Wunderground v.1.15,2013-09-07 11:39:00,
2013-09-07 07:45:00,44.5,43.7,30.13,NNE,31,0.0,0.0,97,0.00,,,0.01,35,Wunderground v.1.15,2013-09-07 11:45:00,
2013-09-07 07:51:00,45.3,44.5,30.13,NNE,31,0.0,0.0,97,0.00,,,0.01,37,Wunderground v.1.15,2013-09-07 11:51:00,
2013-09-07 07:57:00,46.6,46.1,30.13,NNE,31,0.0,0.0,98,0.00,,,0.01,37,Wunderground v.1.15,2013-09-07 11:57:00,
2013-09-07 08:03:00,47.8,47.3,30.13,NNE,31,0.0,0.0,98,0.00,,,0.01,37,Wunderground v.1.15,2013-09-07 12:03:00,
2013-09-07 08:08:00,48.4,47.9,30.13,NNE,31,0.0,0.0,98,0.00,,,0.01,37,Wunderground v.1.15,2013-09-07 12:08:00,
2013-09-07 08:13:00,48.7,48.2,30.13,NNE,31,0.0,0.0,98,0.00,,,0.01,39,Wunderground v.1.15,2013-09-07 12:13:00,
2013-09-07 08:18:00,49.0,48.5,30.13,NNE,31,0.0,0.0,98,0.00,,,0.01,40,Wunderground v.1.15,2013-09-07 12:18:00,
2013-09-07 08:24:00,50.1,49.6,30.12,NNE,31,0.0,0.0,98,0.00,,,0.01,40,Wunderground v.1.15,2013-09-07 12:24:00,
2013-09-07 08:30:00,51.1,50.6,30.12,NNE,31,0.0,0.0,98,0.00,,,0.01,39,Wunderground v.1.15,2013-09-07 12:30:00,
2013-09-07 08:35:00,51.8,51.3,30.12,NNE,31,0.0,0.0,98,0.00,,,0.01,44,Wunderground v.1.15,2013-09-07 12:35:00,
2013-09-07 08:40:00,52.8,52.3,30.11,NNE,31,0.0,0.0,98,0.00,,,0.01,46,Wunderground v.1.15,2013-09-07 12:40:00,
2013-09-07 08:45:00,53.8,53.2,30.11,NNE,31,0.0,0.0,98,0.00,,,0.01,47,Wunderground v.1.15,2013-09-07 12:45:00,
2013-09-07 08:51:00,54.9,54.3,30.11,NNE,32,0.0,0.0,98,0.00,,,0.01,51,Wunderground v.1.15,2013-09-07 12:51:00,
2013-09-07 08:57:00,55.9,55.3,30.11,ENE,67,0.0,1.0,98,0.00,,,0.01,53,Wunderground v.1.15,2013-09-07 12:57:00,
2013-09-07 09:03:00,56.6,56.0,30.12,East,90,0.0,0.0,98,0.00,,,0.01,53,Wunderground v.1.15,2013-09-07 13:03:00,
2013-09-07 09:08:00,57.1,56.3,30.12,East,90,0.0,0.0,97,0.00,,,0.01,53,Wunderground v.1.15,2013-09-07 13:08:00,
2013-09-07 09:14:00,57.9,55.9,30.12,ENE,71,0.0,0.0,93,0.00,,,0.01,54,Wunderground v.1.15,2013-09-07 13:14:00,
2013-09-07 09:19:00,58.6,56.0,30.12,ENE,71,0.0,0.0,91,0.00,,,0.01,54,Wunderground v.1.15,2013-09-07 13:19:00,
2013-09-07 09:25:00,59.5,56.3,30.12,ENE,76,0.0,1.0,89,0.00,,,0.01,54,Wunderground v.1.15,2013-09-07 13:25:00,
2013-09-07 09:30:00,60.3,56.7,30.12,ENE,76,0.0,0.0,88,0.00,,,0.01,49,Wunderground v.1.15,2013-09-07 13:30:00,
2013-09-07 09:36:00,61.1,57.2,30.12,ENE,76,0.0,0.0,87,0.00,,,0.01,53,Wunderground v.1.15,2013-09-07 13:36:00,
2013-09-07 09:41:00,61.9,57.7,30.12,ENE,76,0.0,0.0,86,0.00,,,0.01,53,Wunderground v.1.15,2013-09-07 13:41:00,
2013-09-07 09:46:00,62.6,57.0,30.12,NNE,28,0.0,0.0,82,0.00,,,0.01,53,Wunderground v.1.15,2013-09-07 13:46:00,
2013-09-07 09:51:00,63.0,58.1,30.12,NE,46,0.0,0.0,84,0.00,,,0.01,54,Wunderground v.1.15,2013-09-07 13:51:00,
2013-09-07 09:57:00,63.6,58.3,30.11,NE,46,0.0,0.0,83,0.00,,,0.01,54,Wunderground v.1.15,2013-09-07 13:57:00,
2013-09-07 10:03:00,64.3,58.7,30.11,NE,47,0.0,0.0,82,0.00,,,0.01,60,Wunderground v.1.15,2013-09-07 14:03:00,
2013-09-07 10:09:00,65.1,59.1,30.11,ENE,65,0.0,0.0,81,0.00,,,0.01,72,Wunderground v.1.15,2013-09-07 14:09:00,
2013-09-07 10:14:00,65.6,58.9,30.11,ENE,65,0.0,0.0,79,0.00,,,0.01,88,Wunderground v.1.15,2013-09-07 14:14:00,
2013-09-07 10:19:00,66.1,59.0,30.11,ENE,65,0.0,0.0,78,0.00,,,0.01,113,Wunderground v.1.15,2013-09-07 14:19:00,
2013-09-07 10:25:00,66.6,59.5,30.11,ENE,65,0.0,0.0,78,0.00,,,0.01,158,Wunderground v.1.15,2013-09-07 14:25:00,
2013-09-07 10:31:00,67.2,59.4,30.11,ENE,67,0.0,2.0,76,0.00,,,-99.99,110,WeatherLink 6.0.3,2013-09-07 14:31:00,
2013-09-07 10:36:00,67.7,58.7,30.11,ENE,65,0.0,0.0,73,0.00,,,0.01,264,Wunderground v.1.15,2013-09-07 14:36:00,
2013-09-07 10:42:00,68.1,59.5,30.11,ENE,65,0.0,0.0,74,0.00,,,0.01,323,Wunderground v.1.15,2013-09-07 14:42:00,
2013-09-07 10:48:00,68.5,57.9,30.11,ENE,65,0.0,0.0,69,0.00,,,0.01,376,Wunderground v.1.15,2013-09-07 14:48:00,
2013-09-07 10:54:00,68.7,58.1,30.10,NE,37,0.0,1.0,69,0.00,,,0.01,390,Wunderground v.1.15,2013-09-07 14:54:00,
2013-09-07 11:00:00,69.1,59.7,30.10,NE,37,0.0,0.0,72,0.00,,,0.01,427,Wunderground v.1.15,2013-09-07 15:00:00,
2013-09-07 11:06:00,69.6,58.6,30.10,NE,34,0.0,0.0,68,0.00,,,0.01,415,Wunderground v.1.15,2013-09-07 15:06:00,
2013-09-07 11:11:00,69.6,59.0,30.10,NNW,341,0.0,2.0,69,0.00,,,0.01,378,Wunderground v.1.15,2013-09-07 15:11:00,
2013-09-07 11:16:00,69.7,59.9,30.10,NNW,341,0.0,2.0,71,0.00,,,0.01,392,Wunderground v.1.15,2013-09-07 15:16:00,
2013-09-07 11:22:00,70.3,59.2,30.10,ESE,107,0.0,1.0,68,0.00,,,0.01,397,Wunderground v.1.15,2013-09-07 15:22:00,
2013-09-07 11:28:00,70.5,60.2,30.10,SE,126,0.0,2.0,70,0.00,,,0.01,406,Wunderground v.1.15,2013-09-07 15:28:00,
2013-09-07 11:33:00,70.8,61.7,30.10,SE,132,0.0,0.0,73,0.00,,,0.01,418,Wunderground v.1.15,2013-09-07 15:33:00,
2013-09-07 11:39:00,71.2,60.1,30.10,SE,131,0.0,0.0,68,0.00,,,0.01,473,Wunderground v.1.15,2013-09-07 15:39:00,
2013-09-07 11:45:00,71.9,59.9,30.09,SE,131,0.0,1.0,66,0.00,,,0.01,519,Wunderground v.1.15,2013-09-07 15:45:00,
2013-09-07 11:51:00,72.4,61.2,30.09,SE,131,0.0,0.0,68,0.00,,,0.01,628,Wunderground v.1.15,2013-09-07 15:51:00,
2013-09-07 11:57:00,72.9,59.6,30.09,SE,131,0.0,1.0,63,0.00,,,0.01,663,Wunderground v.1.15,2013-09-07 15:57:00,
2013-09-07 12:03:00,73.2,58.5,30.09,SE,131,0.0,0.0,60,0.00,,,0.01,608,Wunderground v.1.15,2013-09-07 16:03:00,
2013-09-07 12:08:00,73.2,59.4,30.09,SE,131,0.0,1.0,62,0.00,,,0.01,260,Wunderground v.1.15,2013-09-07 16:08:00,
2013-09-07 12:13:00,73.1,59.3,30.08,SE,131,0.0,0.0,62,0.00,,,0.01,696,Wunderground v.1.15,2013-09-07 16:13:00,
2013-09-07 12:19:00,73.3,59.9,30.08,SE,131,0.0,1.0,63,0.00,,,0.01,666,Wunderground v.1.15,2013-09-07 16:19:00,
2013-09-07 12:25:00,73.6,59.8,30.08,WNW,283,0.0,2.0,62,0.00,,,0.01,631,Wunderground v.1.15,2013-09-07 16:25:00,
2013-09-07 12:31:00,73.7,60.8,30.08,SE,135,0.0,4.0,64,0.00,,,-99.99,662,WeatherLink 6.0.3,2013-09-07 16:31:00,
2013-09-07 12:36:00,73.9,59.1,30.07,SW,214,0.0,1.0,60,0.00,,,0.01,457,Wunderground v.1.15,2013-09-07 16:36:00,
2013-09-07 12:42:00,74.0,59.7,30.07,West,259,0.0,0.0,61,0.00,,,0.01,701,Wunderground v.1.15,2013-09-07 16:42:00,
2013-09-07 12:48:00,74.2,58.5,30.07,WSW,250,0.0,1.0,58,0.00,,,0.01,768,Wunderground v.1.15,2013-09-07 16:48:00,
2013-09-07 12:54:00,74.4,59.1,30.06,SSE,165,0.0,1.0,59,0.00,,,0.01,554,Wunderground v.1.15,2013-09-07 16:54:00,
2013-09-07 12:59:00,74.3,59.5,30.06,SSE,158,0.0,1.0,60,0.00,,,0.01,559,Wunderground v.1.15,2013-09-07 16:59:00,
2013-09-07 13:04:00,74.4,60.5,30.06,SSE,158,0.0,1.0,62,0.00,,,0.01,554,Wunderground v.1.15,2013-09-07 17:04:00,
2013-09-07 13:11:00,74.7,60.8,30.06,West,266,0.0,0.0,62,0.00,,,0.01,846,Wunderground v.1.15,2013-09-07 17:11:00,
2013-09-07 13:16:00,75.0,59.2,30.06,SE,140,1.0,3.0,58,0.00,,,0.01,722,Wunderground v.1.15,2013-09-07 17:16:00,
2013-09-07 13:21:00,75.0,59.7,30.06,SSE,159,1.0,1.0,59,0.00,,,0.01,729,Wunderground v.1.15,2013-09-07 17:21:00,
2013-09-07 13:27:00,75.1,59.8,30.05,NW,304,0.0,1.0,59,0.00,,,0.01,671,Wunderground v.1.15,2013-09-07 17:27:00,
2013-09-07 13:32:00,75.2,60.4,30.06,West,279,0.0,0.0,60,0.00,,,0.01,682,Wunderground v.1.15,2013-09-07 17:32:00,
2013-09-07 13:38:00,75.6,59.8,30.06,SE,138,0.0,1.0,58,0.00,,,0.01,824,Wunderground v.1.15,2013-09-07 17:38:00,
2013-09-07 13:43:00,75.8,58.5,30.05,NNW,342,0.0,0.0,55,0.00,,,0.01,715,Wunderground v.1.15,2013-09-07 17:43:00,
2013-09-07 13:49:00,76.0,60.6,30.05,West,275,0.0,1.0,59,0.00,,,0.01,663,Wunderground v.1.15,2013-09-07 17:49:00,
2013-09-07 13:54:00,76.2,59.4,30.05,South,181,0.0,0.0,56,0.00,,,0.01,717,Wunderground v.1.15,2013-09-07 17:54:00,
2013-09-07 13:59:00,76.5,59.6,30.05,West,269,0.0,4.0,56,0.00,,,0.01,786,Wunderground v.1.15,2013-09-07 17:59:00,
2013-09-07 14:04:00,76.9,59.0,30.04,WSW,252,0.0,1.0,54,0.00,,,0.01,779,Wunderground v.1.15,2013-09-07 18:04:00,
2013-09-07 14:10:00,77.1,58.1,30.04,West,269,0.0,1.0,52,0.00,,,0.01,775,Wunderground v.1.15,2013-09-07 18:10:00,
2013-09-07 14:16:00,77.3,58.8,30.04,ENE,59,0.0,1.0,53,0.00,,,0.01,766,Wunderground v.1.15,2013-09-07 18:16:00,
2013-09-07 14:22:00,77.4,58.4,30.04,NNW,331,0.0,0.0,52,0.00,,,0.01,763,Wunderground v.1.15,2013-09-07 18:22:00,
2013-09-07 14:27:00,77.5,59.0,30.03,South,175,0.0,4.0,53,0.00,,,0.01,765,Wunderground v.1.15,2013-09-07 18:27:00,
2013-09-07 14:32:00,77.4,57.9,30.03,SW,215,0.0,0.0,51,0.00,,,0.01,756,Wunderground v.1.15,2013-09-07 18:32:00,
2013-09-07 14:38:00,77.4,57.9,30.03,SSW,198,0.0,2.0,51,0.00,,,0.01,705,Wunderground v.1.15,2013-09-07 18:38:00,
2013-09-07 14:44:00,77.1,60.2,30.03,West,274,0.0,1.0,56,0.00,,,0.01,754,Wunderground v.1.15,2013-09-07 18:44:00,
2013-09-07 14:49:00,77.1,58.1,30.03,WNW,292,0.0,1.0,52,0.00,,,0.01,751,Wunderground v.1.15,2013-09-07 18:49:00,
2013-09-07 14:54:00,77.3,59.9,30.03,NNE,17,0.0,2.0,55,0.00,,,0.01,714,Wunderground v.1.15,2013-09-07 18:54:00,
2013-09-07 15:00:00,77.2,58.7,30.02,WSW,254,0.0,0.0,53,0.00,,,0.01,738,Wunderground v.1.15,2013-09-07 19:00:00,
2013-09-07 15:06:00,77.2,59.8,30.02,WSW,252,0.0,1.0,55,0.00,,,0.01,737,Wunderground v.1.15,2013-09-07 19:06:00,
2013-09-07 15:13:00,77.2,60.3,30.02,SW,218,0.0,0.0,56,0.00,,,0.01,717,Wunderground v.1.15,2013-09-07 19:13:00,
2013-09-07 15:18:00,77.5,60.1,30.01,SW,218,0.0,0.0,55,0.00,,,0.01,710,Wunderground v.1.15,2013-09-07 19:18:00,
2013-09-07 15:24:00,77.7,61.3,30.01,SW,227,0.0,1.0,57,0.00,,,0.01,698,Wunderground v.1.15,2013-09-07 19:24:00,
2013-09-07 15:30:00,77.9,59.4,30.01,SW,234,0.0,0.0,53,0.00,,,0.01,710,Wunderground v.1.15,2013-09-07 19:30:00,
2013-09-07 15:35:00,77.9,60.9,30.01,SSE,163,1.0,1.0,56,0.00,,,0.01,673,Wunderground v.1.15,2013-09-07 19:35:00,
2013-09-07 15:40:00,77.7,61.7,30.01,SSE,163,1.0,1.0,58,0.00,,,0.01,689,Wunderground v.1.15,2013-09-07 19:40:00,
2013-09-07 15:46:00,77.7,59.2,30.01,SE,138,0.0,1.0,53,0.00,,,0.01,628,Wunderground v.1.15,2013-09-07 19:46:00,
2013-09-07 15:52:00,77.8,60.8,30.00,SE,138,0.0,0.0,56,0.00,,,0.01,227,Wunderground v.1.15,2013-09-07 19:52:00,
2013-09-07 15:57:00,77.5,60.6,30.00,SE,144,0.0,1.0,56,0.00,,,0.01,257,Wunderground v.1.15,2013-09-07 19:57:00,
2013-09-07 16:03:00,76.9,61.0,30.00,SE,144,0.0,0.0,58,0.00,,,0.01,244,Wunderground v.1.15,2013-09-07 20:03:00,
2013-09-07 16:08:00,76.6,61.7,30.00,SE,144,0.0,0.0,60,0.00,,,0.01,596,Wunderground v.1.15,2013-09-07 20:08:00,
2013-09-07 16:13:00,76.6,61.2,30.00,SE,145,0.0,1.0,59,0.00,,,0.01,613,Wunderground v.1.15,2013-09-07 20:13:00,
2013-09-07 16:19:00,76.7,60.3,30.00,SSW,194,0.0,1.0,57,0.00,,,0.01,635,Wunderground v.1.15,2013-09-07 20:19:00,
2013-09-07 16:24:00,77.0,59.6,30.00,SSW,194,0.0,0.0,55,0.00,,,0.01,624,Wunderground v.1.15,2013-09-07 20:24:00,
2013-09-07 16:30:00,77.2,60.3,29.99,South,169,0.0,0.0,56,0.00,,,0.01,622,Wunderground v.1.15,2013-09-07 20:30:00,
2013-09-07 16:36:00,77.5,60.1,29.99,South,172,0.0,1.0,55,0.00,,,0.01,559,Wunderground v.1.15,2013-09-07 20:36:00,
2013-09-07 16:42:00,77.5,61.1,29.99,South,172,0.0,0.0,57,0.00,,,0.01,439,Wunderground v.1.15,2013-09-07 20:42:00,
2013-09-07 16:48:00,77.7,62.7,29.99,South,172,0.0,0.0,60,0.00,,,0.01,359,Wunderground v.1.15,2013-09-07 20:48:00,
2013-09-07 16:53:00,77.8,61.8,29.99,South,172,0.0,0.0,58,0.00,,,0.01,357,Wunderground v.1.15,2013-09-07 20:53:00,
2013-09-07 16:59:00,77.8,63.7,29.99,South,172,0.0,0.0,62,0.00,,,0.01,232,Wunderground v.1.15,2013-09-07 20:59:00,
2013-09-07 17:04:00,77.7,64.1,29.99,South,172,0.0,0.0,63,0.00,,,0.01,257,Wunderground v.1.15,2013-09-07 21:04:00,
2013-09-07 17:09:00,77.6,62.6,29.99,South,172,0.0,0.0,60,0.00,,,0.01,336,Wunderground v.1.15,2013-09-07 21:09:00,
2013-09-07 17:14:00,77.5,64.8,29.99,South,172,0.0,0.0,65,0.00,,,0.01,315,Wunderground v.1.15,2013-09-07 21:14:00,
2013-09-07 17:20:00,77.2,63.2,29.98,South,172,0.0,0.0,62,0.00,,,0.01,230,Wunderground v.1.15,2013-09-07 21:20:00,
2013-09-07 17:26:00,76.9,63.8,29.98,South,172,0.0,0.0,64,0.00,,,0.01,257,Wunderground v.1.15,2013-09-07 21:26:00,
2013-09-07 17:32:00,76.8,64.1,29.98,South,172,0.0,0.0,65,0.00,,,0.01,246,Wunderground v.1.15,2013-09-07 21:32:00,
2013-09-07 17:38:00,76.6,64.8,29.98,South,172,0.0,0.0,67,0.00,,,0.01,121,Wunderground v.1.15,2013-09-07 21:38:00,
2013-09-07 17:43:00,76.4,64.6,29.98,South,172,0.0,0.0,67,0.00,,,0.01,158,Wunderground v.1.15,2013-09-07 21:43:00,
2013-09-07 17:48:00,76.3,65.0,29.98,South,172,0.0,0.0,68,0.00,,,0.01,236,Wunderground v.1.15,2013-09-07 21:48:00,
2013-09-07 17:53:00,76.3,65.8,29.97,South,172,0.0,0.0,70,0.00,,,0.01,341,Wunderground v.1.15,2013-09-07 21:53:00,
2013-09-07 17:58:00,76.2,64.4,29.97,South,172,0.0,0.0,67,0.00,,,0.01,193,Wunderground v.1.15,2013-09-07 21:58:00,
2013-09-07 18:04:00,76.0,63.8,29.97,South,172,0.0,0.0,66,0.00,,,0.01,148,Wunderground v.1.15,2013-09-07 22:04:00,
2013-09-07 18:09:00,75.6,62.6,29.97,South,172,0.0,0.0,64,0.00,,,0.01,69,Wunderground v.1.15,2013-09-07 22:09:00,
2013-09-07 18:14:00,75.1,62.5,29.97,South,172,0.0,0.0,65,0.00,,,0.01,51,Wunderground v.1.15,2013-09-07 22:14:00,
2013-09-07 18:19:00,74.7,62.1,29.97,South,172,0.0,0.0,65,0.00,,,0.01,42,Wunderground v.1.15,2013-09-07 22:19:00,
2013-09-07 18:24:00,74.2,64.2,29.97,South,172,0.0,0.0,71,0.00,,,0.01,39,Wunderground v.1.15,2013-09-07 22:24:00,
2013-09-07 18:29:00,73.8,64.6,29.97,South,172,0.0,0.0,73,0.00,,,0.01,39,Wunderground v.1.15,2013-09-07 22:29:00,
2013-09-07 18:34:00,73.3,64.5,29.96,South,172,0.0,0.0,74,0.00,,,0.01,40,Wunderground v.1.15,2013-09-07 22:34:00,
2013-09-07 18:39:00,72.7,63.9,29.97,South,172,0.0,0.0,74,0.00,,,0.01,39,Wunderground v.1.15,2013-09-07 22:39:00,
2013-09-07 18:44:00,72.1,63.7,29.96,South,172,0.0,0.0,75,0.00,,,0.01,39,Wunderground v.1.15,2013-09-07 22:44:00,
2013-09-07 18:49:00,71.4,61.9,29.97,South,172,0.0,0.0,72,0.00,,,0.01,35,Wunderground v.1.15,2013-09-07 22:49:00,
2013-09-07 18:54:00,70.8,63.2,29.97,South,172,0.0,0.0,77,0.00,,,0.01,30,Wunderground v.1.15,2013-09-07 22:54:00,
2013-09-07 18:59:00,70.4,63.6,29.97,South,172,0.0,0.0,79,0.00,,,0.01,25,Wunderground v.1.15,2013-09-07 22:59:00,
2013-09-07 19:05:00,69.7,63.6,29.97,South,172,0.0,0.0,81,0.00,,,0.01,19,Wunderground v.1.15,2013-09-07 23:05:00,
2013-09-07 19:11:00,69.2,63.1,29.96,South,172,0.0,0.0,81,0.00,,,0.01,16,Wunderground v.1.15,2013-09-07 23:11:00,
2013-09-07 19:16:00,68.5,62.4,29.97,South,172,0.0,0.0,81,0.00,,,0.01,14,Wunderground v.1.15,2013-09-07 23:16:00,
2013-09-07 19:21:00,68.0,62.6,29.96,South,172,0.0,0.0,83,0.00,,,0.01,12,Wunderground v.1.15,2013-09-07 23:21:00,
2013-09-07 19:26:00,67.4,62.1,29.97,South,172,0.0,0.0,83,0.00,,,0.01,9,Wunderground v.1.15,2013-09-07 23:26:00,
2013-09-07 19:31:00,67.0,62.0,29.97,South,172,0.0,0.0,84,0.00,,,0.01,7,Wunderground v.1.15,2013-09-07 23:31:00,
2013-09-07 19:36:00,66.4,61.4,29.97,South,172,0.0,0.0,84,0.00,,,0.01,0,Wunderground v.1.15,2013-09-07 23:36:00,
2013-09-07 19:41:00,65.9,61.3,29.97,South,172,0.0,0.0,85,0.00,,,0.01,0,Wunderground v.1.15,2013-09-07 23:41:00,
2013-09-07 19:46:00,65.5,61.2,29.97,South,172,0.0,0.0,86,0.00,,,0.01,0,Wunderground v.1.15,2013-09-07 23:46:00,
2013-09-07 19:51:00,65.2,61.2,29.97,South,172,0.0,0.0,87,0.00,,,0.01,0,Wunderground v.1.15,2013-09-07 23:51:00,
2013-09-07 19:56:00,64.9,61.3,29.97,South,172,0.0,0.0,88,0.00,,,0.01,0,Wunderground v.1.15,2013-09-07 23:56:00,
2013-09-07 20:01:00,64.7,61.1,29.97,South,172,0.0,0.0,88,0.00,,,0.01,0,Wunderground v.1.15,2013-09-08 00:01:00,
2013-09-07 20:06:00,64.4,60.8,29.97,South,172,0.0,0.0,88,0.00,,,0.01,0,Wunderground v.1.15,2013-09-08 00:06:00,
2013-09-07 20:12:00,64.1,60.8,29.97,South,172,0.0,0.0,89,0.00,,,0.01,0,Wunderground v.1.15,2013-09-08 00:12:00,
2013-09-07 20:17:00,63.9,60.9,29.97,South,172,0.0,0.0,90,0.00,,,0.01,0,Wunderground v.1.15,2013-09-08 00:17:00,
2013-09-07 20:22:00,63.7,60.7,29.98,South,172,0.0,0.0,90,0.00,,,0.01,0,Wunderground v.1.15,2013-09-08 00:22:00,
2013-09-07 20:27:00,63.5,60.5,29.98,South,172,0.0,0.0,90,0.00,,,0.01,0,Wunderground v.1.15,2013-09-08 00:27:00,
2013-09-07 20:32:00,63.3,60.3,29.97,South,172,0.0,0.0,90,0.00,,,0.01,0,Wunderground v.1.15,2013-09-08 00:32:00,
2013-09-07 20:37:00,63.1,60.4,29.97,South,172,0.0,0.0,91,0.00,,,0.01,0,Wunderground v.1.15,2013-09-08 00:37:00,
2013-09-07 20:43:00,63.0,60.3,29.98,South,172,0.0,0.0,91,0.00,,,0.01,0,Wunderground v.1.15,2013-09-08 00:43:00,
2013-09-07 20:48:00,63.0,60.6,29.98,South,172,0.0,0.0,92,0.00,,,0.01,0,Wunderground v.1.15,2013-09-08 00:48:00,
2013-09-07 20:54:00,63.0,60.6,29.98,South,172,0.0,0.0,92,0.00,,,0.01,0,Wunderground v.1.15,2013-09-08 00:54:00,
2013-09-07 20:59:00,63.0,60.6,29.98,South,172,0.0,0.0,92,0.00,,,0.01,0,Wunderground v.1.15,2013-09-08 00:59:00,
2013-09-07 21:04:00,63.0,60.6,29.98,South,172,0.0,0.0,92,0.00,,,0.01,0,Wunderground v.1.15,2013-09-08 01:04:00,
2013-09-07 21:09:00,62.9,60.5,29.98,South,172,0.0,0.0,92,0.00,,,0.01,0,Wunderground v.1.15,2013-09-08 01:09:00,
2013-09-07 21:14:00,62.8,60.4,29.98,South,172,0.0,0.0,92,0.00,,,0.01,0,Wunderground v.1.15,2013-09-08 01:14:00,
2013-09-07 21:19:00,62.9,60.5,29.98,South,172,0.0,0.0,92,0.00,,,0.01,0,Wunderground v.1.15,2013-09-08 01:19:00,
2013-09-07 21:25:00,62.9,60.5,29.98,South,172,0.0,0.0,92,0.00,,,0.01,0,Wunderground v.1.15,2013-09-08 01:25:00,
2013-09-07 21:30:00,62.9,60.8,29.99,South,172,0.0,0.0,93,0.00,,,0.01,0,Wunderground v.1.15,2013-09-08 01:30:00,
2013-09-07 21:35:00,62.9,60.8,29.99,South,172,0.0,0.0,93,0.00,,,0.01,0,Wunderground v.1.15,2013-09-08 01:35:00,
2013-09-07 21:40:00,62.8,60.7,29.99,South,172,0.0,0.0,93,0.00,,,0.01,0,Wunderground v.1.15,2013-09-08 01:40:00,
2013-09-07 21:45:00,62.7,60.6,29.98,South,172,0.0,0.0,93,0.00,,,0.01,0,Wunderground v.1.15,2013-09-08 01:45:00,
2013-09-07 21:50:00,62.7,60.6,29.98,South,172,0.0,0.0,93,0.00,,,0.01,0,Wunderground v.1.15,2013-09-08 01:50:00,
2013-09-07 21:56:00,62.7,60.6,29.98,South,172,0.0,0.0,93,0.00,,,0.01,0,Wunderground v.1.15,2013-09-08 01:56:00,
2013-09-07 22:01:00,62.7,60.6,29.98,South,172,0.0,0.0,93,0.00,,,0.01,0,Wunderground v.1.15,2013-09-08 02:01:00,
2013-09-07 22:06:00,62.7,60.6,29.98,South,172,0.0,0.0,93,0.00,,,0.01,0,Wunderground v.1.15,2013-09-08 02:06:00,
2013-09-07 22:12:00,62.7,60.6,29.98,South,172,0.0,0.0,93,0.00,,,0.01,0,Wunderground v.1.15,2013-09-08 02:12:00,
2013-09-07 22:17:00,62.7,60.6,29.98,South,172,0.0,0.0,93,0.00,,,0.01,0,Wunderground v.1.15,2013-09-08 02:17:00,
2013-09-07 22:22:00,62.7,60.9,29.98,South,172,0.0,0.0,94,0.00,,,0.01,0,Wunderground v.1.15,2013-09-08 02:22:00,
2013-09-07 22:27:00,62.8,61.0,29.97,South,172,0.0,0.0,94,0.00,,,0.01,0,Wunderground v.1.15,2013-09-08 02:27:00,
2013-09-07 22:32:00,62.8,61.0,29.98,South,172,0.0,0.0,94,0.00,,,0.01,0,Wunderground v.1.15,2013-09-08 02:32:00,
2013-09-07 22:37:00,62.8,61.0,29.97,South,172,0.0,0.0,94,0.00,,,0.01,0,Wunderground v.1.15,2013-09-08 02:37:00,
2013-09-07 22:43:00,62.8,61.0,29.98,South,172,0.0,0.0,94,0.00,,,0.01,0,Wunderground v.1.15,2013-09-08 02:43:00,
2013-09-07 22:48:00,62.8,61.0,29.97,South,172,0.0,0.0,94,0.00,,,0.01,0,Wunderground v.1.15,2013-09-08 02:48:00,
2013-09-07 22:53:00,62.7,60.9,29.97,South,172,0.0,0.0,94,0.00,,,0.01,0,Wunderground v.1.15,2013-09-08 02:53:00,
2013-09-07 22:59:00,62.6,60.8,29.97,South,172,0.0,0.0,94,0.00,,,0.01,0,Wunderground v.1.15,2013-09-08 02:59:00,
2013-09-07 23:05:00,62.6,60.8,29.97,South,172,0.0,0.0,94,0.00,,,0.01,0,Wunderground v.1.15,2013-09-08 03:05:00,
2013-09-07 23:11:00,62.5,60.7,29.97,South,172,0.0,0.0,94,0.00,,,0.01,0,Wunderground v.1.15,2013-09-08 03:11:00,
2013-09-07 23:17:00,62.5,60.7,29.96,South,172,0.0,0.0,94,0.00,,,0.01,0,Wunderground v.1.15,2013-09-08 03:17:00,
2013-09-07 23:22:00,62.4,60.7,29.96,South,172,0.0,0.0,94,0.00,,,0.01,0,Wunderground v.1.15,2013-09-08 03:22:00,
2013-09-07 23:27:00,62.4,60.7,29.96,South,172,0.0,0.0,94,0.00,,,0.01,0,Wunderground v.1.15,2013-09-08 03:27:00,
2013-09-07 23:33:00,62.4,60.7,29.96,South,172,0.0,0.0,94,0.00,,,0.01,0,Wunderground v.1.15,2013-09-08 03:33:00,
2013-09-07 23:38:00,62.3,60.6,29.96,South,172,0.0,0.0,94,0.00,,,0.01,0,Wunderground v.1.15,2013-09-08 03:38:00,
2013-09-07 23:43:00,62.4,60.7,29.96,South,172,0.0,0.0,94,0.00,,,0.01,0,Wunderground v.1.15,2013-09-08 03:43:00,
2013-09-07 23:49:00,62.4,60.9,29.96,South,172,0.0,0.0,95,0.00,,,0.01,0,Wunderground v.1.15,2013-09-08 03:49:00,
2013-09-07 23:54:00,62.5,61.0,29.96,South,172,0.0,0.0,95,0.00,,,0.01,0,Wunderground v.1.15,2013-09-08 03:54:00,